Time;durP1;ratioP1;P1;durP2;ratioP2;P2;SDS_P1;SDS_P2;PMS_P1;PMS_P2;Temp;Humidity;BMP_temperature;BMP_pressure;BME280_temperature;BME280_humidity;BME280_pressure;Samples;Min_cycle;Max_cycle;Signal;HPM_P1;HPM_P2
2023/06/18 00:01:37;;;;;;;29.25;19.35;;;15.70;99.90;;;;;;5035791;28;20049;-87
2023/06/18 00:04:23;;;;;;;26.02;18.45;;;15.70;99.90;;;;;;5018613;28;20412;-87
2023/06/18 00:07:09;;;;;;;26.10;18.42;;;15.70;99.90;;;;;;5051262;28;20132;-85
2023/06/18 00:09:55;;;;;;;23.75;17.17;;;15.70;99.90;;;;;;5032076;28;20053;-81
2023/06/18 00:12:41;;;;;;;26.95;18.85;;;15.60;99.90;;;;;;5019443;28;20045;-87
2023/06/18 00:15:27;;;;;;;25.77;17.50;;;15.60;99.90;;;;;;5032435;28;20162;-84
2023/06/18 00:18:13;;;;;;;29.50;18.45;;;15.60;99.90;;;;;;5050230;28;20730;-86
2023/06/18 00:21:00;;;;;;;26.75;18.05;;;15.60;99.90;;;;;;5051531;28;20056;-87
2023/06/18 00:23:46;;;;;;;28.42;19.02;;;15.60;99.90;;;;;;5049490;28;20056;-82
2023/06/18 00:26:32;;;;;;;29.70;19.48;;;15.50;99.90;;;;;;5031963;28;20053;-80
2023/06/18 00:29:18;;;;;;;27.55;18.58;;;15.50;99.90;;;;;;5050202;28;20053;-83
2023/06/18 00:32:04;;;;;;;33.65;19.50;;;15.50;99.90;;;;;;5032584;28;20087;-83
2023/06/18 00:34:53;;;;;;;30.27;20.60;;;15.40;99.90;;;;;;5050390;28;20045;-86
2023/06/18 00:37:39;;;;;;;31.98;20.48;;;15.50;99.90;;;;;;5049228;28;20049;-82
2023/06/18 00:40:25;;;;;;;33.25;21.42;;;15.30;99.90;;;;;;5035458;28;20053;-87
2023/06/18 00:43:11;;;;;;;35.95;23.48;;;15.30;99.90;;;;;;5054435;28;20049;-89
2023/06/18 00:46:00;;;;;;;35.03;21.80;;;15.20;99.90;;;;;;5022723;28;20057;-84
2023/06/18 00:48:47;;;;;;;37.78;24.42;;;15.20;99.90;;;;;;5050337;28;20052;-89
2023/06/18 00:51:34;;;;;;;31.30;20.33;;;15.20;99.90;;;;;;5050871;28;20049;-82
2023/06/18 00:54:21;;;;;;;34.72;23.83;;;15.20;99.90;;;;;;5048723;28;20049;-86
2023/06/18 00:57:08;;;;;;;34.67;23.58;;;15.20;99.90;;;;;;5051096;28;20070;-86
2023/06/18 00:59:55;;;;;;;34.15;21.00;;;15.20;99.90;;;;;;5050796;28;20045;-85
2023/06/18 01:02:45;;;;;;;38.85;23.13;;;15.20;99.90;;;;;;5031241;28;20059;-80
2023/06/18 01:05:33;;;;;;;38.58;23.35;;;15.20;99.90;;;;;;5049353;28;20505;-81
2023/06/18 01:08:23;;;;;;;34.45;21.85;;;15.20;99.90;;;;;;5035254;28;20090;-81
2023/06/18 01:11:09;;;;;;;36.83;23.45;;;15.10;99.90;;;;;;5031113;28;20530;-80
2023/06/18 01:13:55;;;;;;;38.60;23.02;;;15.10;99.90;;;;;;5050050;28;20098;-81
2023/06/18 01:16:45;;;;;;;39.65;24.08;;;15.10;99.90;;;;;;5049292;28;20052;-80
2023/06/18 01:19:49;;;;;;;38.50;25.23;;;15.10;99.90;;;;;;5030761;28;20052;-87
2023/06/18 01:22:57;;;;;;;42.35;25.70;;;15.10;99.90;;;;;;5035659;28;20063;-82
2023/06/18 01:25:45;;;;;;;45.90;26.52;;;15.10;99.90;;;;;;5050392;28;20128;-82
2023/06/18 01:28:32;;;;;;;34.60;23.08;;;15.10;99.90;;;;;;5049570;28;20057;-87
2023/06/18 01:31:22;;;;;;;40.83;24.10;;;15.10;99.90;;;;;;5031767;28;20103;-83
2023/06/18 01:34:09;;;;;;;41.83;26.77;;;15.10;99.90;;;;;;5048516;28;20045;-83
2023/06/18 01:37:10;;;;;;;40.90;25.15;;;15.10;99.90;;;;;;5035902;28;20053;-81
2023/06/18 01:40:08;;;;;;;37.00;23.83;;;15.10;99.90;;;;;;5048124;28;20428;-82
2023/06/18 01:43:11;;;;;;;39.30;24.00;;;15.10;99.90;;;;;;5048566;28;20056;-82
2023/06/18 01:46:09;;;;;;;38.03;23.63;;;15.10;99.90;;;;;;5030666;28;20061;-89
2023/06/18 01:48:58;;;;;;;36.85;22.70;;;15.00;99.90;;;;;;5052685;28;20067;-82
2023/06/18 01:51:45;;;;;;;43.30;24.48;;;15.00;99.90;;;;;;5053155;28;20063;-85
2023/06/18 01:54:31;;;;;;;38.72;24.50;;;15.00;99.90;;;;;;5033904;28;20420;-82
2023/06/18 01:57:18;;;;;;;39.53;24.80;;;15.00;99.90;;;;;;5053315;28;20048;-88
2023/06/18 02:00:06;;;;;;;38.45;23.85;;;14.90;99.90;;;;;;5053003;28;20060;-84
2023/06/18 02:02:52;;;;;;;37.38;23.80;;;14.90;99.90;;;;;;5034661;28;20400;-89
2023/06/18 02:05:39;;;;;;;37.53;23.27;;;14.90;99.90;;;;;;5038093;28;20053;-80
2023/06/18 02:08:26;;;;;;;35.80;23.38;;;14.90;99.90;;;;;;5055913;28;20045;-82
2023/06/18 02:11:12;;;;;;;35.50;24.05;;;14.80;99.90;;;;;;5055560;28;20063;-84
2023/06/18 02:13:58;;;;;;;35.10;22.05;;;14.80;99.90;;;;;;5034603;28;20485;-84
2023/06/18 02:16:44;;;;;;;40.15;23.20;;;14.70;99.90;;;;;;5052840;28;20072;-82
2023/06/18 02:19:30;;;;;;;38.28;24.75;;;14.70;99.90;;;;;;5051782;28;20461;-81
2023/06/18 02:22:16;;;;;;;38.22;24.65;;;14.70;99.90;;;;;;5035714;28;20399;-81
2023/06/18 02:25:04;;;;;;;44.22;26.88;;;14.70;99.90;;;;;;5021937;28;20045;-82
2023/06/18 02:27:53;;;;;;;40.53;25.48;;;14.60;99.90;;;;;;5052855;28;20065;-85
2023/06/18 02:30:39;;;;;;;43.13;25.08;;;14.50;99.90;;;;;;5052981;28;20056;-85
2023/06/18 02:33:26;;;;;;;36.25;21.63;;;14.60;99.90;;;;;;5051885;28;20076;-86
2023/06/18 02:36:12;;;;;;;39.80;24.55;;;14.50;99.90;;;;;;5053261;28;20084;-86
2023/06/18 02:38:58;;;;;;;38.88;24.13;;;14.50;99.90;;;;;;5051771;28;20140;-84
2023/06/18 02:41:44;;;;;;;39.13;24.33;;;14.50;99.90;;;;;;5052649;28;20045;-82
2023/06/18 02:44:31;;;;;;;35.13;22.80;;;14.40;99.90;;;;;;5053209;28;20083;-81
2023/06/18 02:47:17;;;;;;;38.60;23.30;;;14.40;99.90;;;;;;5035315;28;20049;-80
2023/06/18 02:50:03;;;;;;;48.17;28.02;;;14.40;99.90;;;;;;5034584;28;20136;-81
2023/06/18 02:52:49;;;;;;;33.13;21.05;;;14.30;99.90;;;;;;5036734;28;20095;-81
2023/06/18 02:55:35;;;;;;;40.80;24.38;;;14.30;99.90;;;;;;5052770;28;20053;-81
2023/06/18 02:58:28;;;;;;;43.40;24.23;;;14.30;99.90;;;;;;5051148;28;20060;-81
2023/06/18 03:01:17;;;;;;;43.85;24.77;;;14.30;99.90;;;;;;5055406;28;20049;-82
2023/06/18 03:04:03;;;;;;;36.95;22.35;;;14.30;99.90;;;;;;5039753;28;20041;-86
2023/06/18 03:06:50;;;;;;;38.63;23.10;;;14.20;99.90;;;;;;5056937;28;20108;-81
2023/06/18 03:09:36;;;;;;;38.58;23.08;;;14.20;99.90;;;;;;5027372;28;20079;-80
2023/06/18 03:12:22;;;;;;;37.53;23.08;;;14.20;99.90;;;;;;5055515;28;20140;-80
2023/06/18 03:15:08;;;;;;;43.15;23.42;;;14.20;99.90;;;;;;5050710;28;20041;-81
2023/06/18 03:17:54;;;;;;;36.17;22.33;;;14.20;99.90;;;;;;5051286;28;20083;-81
2023/06/18 03:20:42;;;;;;;33.63;20.70;;;14.20;99.90;;;;;;5052374;28;20045;-80
2023/06/18 03:23:28;;;;;;;36.35;21.65;;;14.20;99.90;;;;;;5050696;28;20048;-83
2023/06/18 03:26:15;;;;;;;38.85;20.85;;;14.20;99.90;;;;;;5021839;28;20056;-82
2023/06/18 03:29:02;;;;;;;49.13;22.02;;;14.20;99.90;;;;;;5053508;28;20080;-83
2023/06/18 03:31:48;;;;;;;33.58;18.73;;;14.20;99.90;;;;;;5050998;28;20045;-82
2023/06/18 03:34:35;;;;;;;28.38;19.23;;;14.20;99.90;;;;;;5051591;28;20041;-82
2023/06/18 03:37:21;;;;;;;33.80;17.65;;;14.20;99.90;;;;;;5051350;28;20065;-82
2023/06/18 03:40:07;;;;;;;25.17;16.17;;;14.20;99.90;;;;;;5049704;28;20060;-83
2023/06/18 03:42:54;;;;;;;22.85;14.80;;;14.20;99.90;;;;;;5050852;28;20052;-85
2023/06/18 03:45:40;;;;;;;19.52;14.43;;;14.20;99.90;;;;;;5050726;28;20163;-83
2023/06/18 03:48:26;;;;;;;21.50;15.50;;;14.20;99.90;;;;;;5051451;28;20045;-82
2023/06/18 03:51:13;;;;;;;22.17;15.15;;;14.20;99.90;;;;;;5033577;28;20471;-81
2023/06/18 03:53:59;;;;;;;24.27;17.23;;;14.20;99.90;;;;;;5051181;28;20148;-83
2023/06/18 03:56:45;;;;;;;25.85;17.52;;;14.20;99.90;;;;;;5033067;28;20069;-81
2023/06/18 03:59:31;;;;;;;23.98;15.45;;;14.20;99.90;;;;;;5051209;28;20080;-81
2023/06/18 04:02:18;;;;;;;22.25;15.45;;;14.20;99.90;;;;;;5017684;28;20084;-82
2023/06/18 04:05:04;;;;;;;28.73;17.70;;;14.20;99.90;;;;;;5033053;28;20060;-81
2023/06/18 04:07:50;;;;;;;27.52;18.63;;;14.20;99.90;;;;;;5051013;28;20455;-82
2023/06/18 04:10:36;;;;;;;26.90;17.48;;;14.20;99.90;;;;;;5050384;28;20136;-82
2023/06/18 04:13:22;;;;;;;23.17;15.88;;;14.20;99.90;;;;;;5053338;28;20049;-81
2023/06/18 04:16:09;;;;;;;25.15;17.23;;;14.20;99.90;;;;;;5057320;28;20457;-85
2023/06/18 04:18:55;;;;;;;28.13;18.05;;;14.20;99.90;;;;;;5054227;28;20064;-81
2023/06/18 04:21:42;;;;;;;26.50;15.95;;;14.30;99.90;;;;;;5031702;28;20056;-82
2023/06/18 04:24:28;;;;;;;25.90;17.05;;;14.30;99.90;;;;;;5021237;28;20053;-82
2023/06/18 04:27:14;;;;;;;28.63;18.38;;;14.40;99.90;;;;;;5049946;28;20051;-89
2023/06/18 04:30:00;;;;;;;30.83;19.00;;;14.40;99.90;;;;;;5049919;28;20099;-85
2023/06/18 04:32:46;;;;;;;29.27;19.27;;;14.50;99.90;;;;;;5049575;28;20072;-87
2023/06/18 04:35:32;;;;;;;27.23;17.80;;;14.60;99.90;;;;;;5049610;28;20049;-85
2023/06/18 04:38:18;;;;;;;28.25;18.00;;;14.70;99.90;;;;;;5036198;28;20373;-86
2023/06/18 04:41:04;;;;;;;23.13;16.85;;;14.80;99.90;;;;;;5033074;28;20049;-85
2023/06/18 04:43:50;;;;;;;27.73;19.65;;;14.80;99.90;;;;;;5049794;28;20489;-85
2023/06/18 04:46:36;;;;;;;27.55;17.23;;;15.00;99.90;;;;;;5050890;28;20049;-83
2023/06/18 04:49:22;;;;;;;27.80;16.58;;;14.90;99.90;;;;;;5032554;28;20060;-85
2023/06/18 04:52:10;;;;;;;23.50;16.70;;;15.00;99.90;;;;;;5050703;28;20512;-87
2023/06/18 04:54:56;;;;;;;31.23;19.58;;;15.10;99.90;;;;;;5050368;28;20049;-83
2023/06/18 04:57:42;;;;;;;37.60;19.33;;;15.20;99.90;;;;;;5032342;28;20045;-83
2023/06/18 05:00:28;;;;;;;36.30;20.58;;;15.20;99.90;;;;;;5049621;28;20126;-82
2023/06/18 05:03:15;;;;;;;29.42;18.88;;;15.30;99.90;;;;;;5050023;28;20049;-87
2023/06/18 05:06:01;;;;;;;33.15;21.13;;;15.30;99.90;;;;;;5049331;28;20045;-88
2023/06/18 05:08:47;;;;;;;53.35;20.05;;;15.40;99.90;;;;;;5035403;28;20564;-87
2023/06/18 05:11:33;;;;;;;101.70;23.95;;;15.50;99.90;;;;;;5048610;28;20076;-86
2023/06/18 05:14:19;;;;;;;44.38;20.88;;;15.50;99.90;;;;;;5032337;28;20056;-84
2023/06/18 05:17:05;;;;;;;34.92;20.90;;;15.50;99.90;;;;;;5049112;28;20136;-86
2023/06/18 05:19:51;;;;;;;33.20;20.48;;;15.60;99.90;;;;;;5049421;28;20053;-85
2023/06/18 05:22:40;;;;;;;40.42;19.55;;;15.70;99.90;;;;;;5039256;28;20040;-86
2023/06/18 05:25:26;;;;;;;35.90;22.42;;;15.70;99.90;;;;;;5053800;28;20051;-88
2023/06/18 05:28:12;;;;;;;29.55;18.65;;;15.80;99.90;;;;;;5051682;28;20052;-85
2023/06/18 05:30:58;;;;;;;31.00;20.10;;;15.80;99.90;;;;;;5051914;28;20405;-83
2023/06/18 05:33:44;;;;;;;34.83;21.30;;;15.90;99.90;;;;;;5049841;28;20044;-89
2023/06/18 05:36:30;;;;;;;34.28;20.33;;;16.00;99.90;;;;;;5049185;28;20053;-84
2023/06/18 05:39:16;;;;;;;29.55;19.33;;;16.10;99.90;;;;;;5030852;28;20057;-84
2023/06/18 05:42:02;;;;;;;28.33;18.92;;;16.10;99.90;;;;;;5030778;28;20045;-86
2023/06/18 05:44:48;;;;;;;36.65;22.02;;;16.30;99.90;;;;;;5034710;28;20072;-85
2023/06/18 05:47:35;;;;;;;29.00;18.38;;;16.30;99.90;;;;;;5031200;28;20131;-84
2023/06/18 05:50:21;;;;;;;34.63;22.05;;;16.40;99.90;;;;;;5030905;28;20049;-85
2023/06/18 05:53:07;;;;;;;30.98;20.80;;;16.60;99.90;;;;;;5020753;28;20127;-82
2023/06/18 05:55:53;;;;;;;33.40;21.80;;;16.60;99.90;;;;;;5052457;28;20091;-82
2023/06/18 05:58:39;;;;;;;35.72;21.70;;;16.70;99.90;;;;;;5054006;28;20444;-83
2023/06/18 06:01:26;;;;;;;37.28;22.48;;;16.80;99.90;;;;;;5034571;28;20049;-85
2023/06/18 06:04:15;;;;;;;35.92;23.25;;;17.00;99.90;;;;;;5049665;28;20404;-82
2023/06/18 06:07:00;;;;;;;31.30;20.27;;;17.10;99.90;;;;;;5049990;28;20060;-82
2023/06/18 06:09:47;;;;;;;34.65;21.20;;;17.20;99.90;;;;;;5048228;28;20048;-80
2023/06/18 06:12:33;;;;;;;33.30;21.73;;;17.30;99.90;;;;;;5049005;28;20053;-81
2023/06/18 06:15:19;;;;;;;29.75;19.35;;;17.50;99.90;;;;;;5048403;28;20077;-86
2023/06/18 06:18:05;;;;;;;29.63;19.55;;;17.60;99.90;;;;;;5050687;28;20048;-81
2023/06/18 06:20:51;;;;;;;31.33;20.80;;;17.70;99.90;;;;;;5030926;28;20057;-81
2023/06/18 06:23:37;;;;;;;30.33;20.02;;;17.90;99.90;;;;;;5008378;28;20045;-89
2023/06/18 06:26:23;;;;;;;29.77;19.65;;;18.10;99.90;;;;;;5048431;28;20107;-84
2023/06/18 06:29:09;;;;;;;32.92;21.52;;;18.40;99.90;;;;;;5048681;28;20053;-83
2023/06/18 06:31:58;;;;;;;32.67;21.77;;;18.60;99.90;;;;;;5034892;28;20053;-79
2023/06/18 06:34:44;;;;;;;30.90;20.27;;;18.80;99.90;;;;;;5052222;28;20404;-85
2023/06/18 06:37:32;;;;;;;34.75;21.30;;;19.10;99.90;;;;;;5054626;28;20090;-85
2023/06/18 06:40:18;;;;;;;31.38;20.40;;;19.20;99.90;;;;;;5041878;28;20052;-88
2023/06/18 06:43:05;;;;;;;34.25;20.23;;;19.40;99.90;;;;;;5056528;28;20049;-85
2023/06/18 06:45:52;;;;;;;36.75;22.98;;;19.40;99.90;;;;;;5023517;28;20102;-84
2023/06/18 06:48:39;;;;;;;31.65;20.77;;;19.50;99.90;;;;;;5056950;28;20497;-83
2023/06/18 06:51:25;;;;;;;32.08;20.52;;;19.80;99.90;;;;;;5041782;28;20051;-82
2023/06/18 06:54:12;;;;;;;32.70;20.48;;;20.00;99.90;;;;;;5055775;28;20052;-83
2023/06/18 06:56:58;;;;;;;33.92;20.63;;;20.20;99.90;;;;;;5056567;28;20048;-85
2023/06/18 06:59:44;;;;;;;31.35;18.88;;;20.40;99.90;;;;;;5033856;28;20053;-87
2023/06/18 07:02:30;;;;;;;27.05;18.73;;;20.70;99.90;;;;;;5051358;28;20067;-83
2023/06/18 07:05:17;;;;;;;29.45;18.20;;;21.00;99.90;;;;;;5034936;28;20060;-83
2023/06/18 07:08:05;;;;;;;25.10;17.38;;;21.30;99.90;;;;;;5036489;28;20052;-86
2023/06/18 07:10:51;;;;;;;28.25;17.25;;;21.60;99.90;;;;;;5037870;28;20088;-82
2023/06/18 07:13:37;;;;;;;28.30;18.73;;;21.90;99.90;;;;;;5021077;28;20053;-87
2023/06/18 07:16:24;;;;;;;25.70;16.90;;;22.00;99.90;;;;;;5035535;28;20048;-84
2023/06/18 07:19:10;;;;;;;26.52;16.40;;;22.00;99.90;;;;;;5051041;28;20160;-82
2023/06/18 07:21:56;;;;;;;25.55;17.45;;;22.10;99.90;;;;;;5051128;28;20044;-84
2023/06/18 07:24:42;;;;;;;28.17;18.40;;;22.20;99.90;;;;;;5037116;28;20064;-83
2023/06/18 07:27:28;;;;;;;25.38;16.85;;;22.10;99.90;;;;;;5034159;28;20459;-85
2023/06/18 07:30:14;;;;;;;24.98;17.27;;;22.10;99.90;;;;;;5050564;28;20057;-88
2023/06/18 07:33:00;;;;;;;21.02;13.07;;;22.00;99.90;;;;;;5052186;28;20460;-81
2023/06/18 07:35:46;;;;;;;25.25;16.30;;;22.10;99.90;;;;;;5052401;28;20050;-87
2023/06/18 07:38:32;;;;;;;22.92;15.02;;;22.20;99.90;;;;;;5058453;28;20102;-80
2023/06/18 07:41:19;;;;;;;23.45;15.07;;;22.20;99.90;;;;;;5033363;28;20472;-81
2023/06/18 07:44:05;;;;;;;24.75;16.23;;;22.20;99.90;;;;;;5050561;28;20060;-83
2023/06/18 07:46:51;;;;;;;22.83;15.70;;;22.20;99.90;;;;;;5050917;28;20082;-81
2023/06/18 07:49:37;;;;;;;29.60;16.17;;;22.20;99.90;;;;;;5037489;28;20049;-81
2023/06/18 07:52:23;;;;;;;23.20;16.75;;;22.30;99.90;;;;;;5050574;28;20083;-82
2023/06/18 07:55:10;;;;;;;22.38;14.82;;;22.30;99.90;;;;;;5050199;28;20456;-80
2023/06/18 07:57:56;;;;;;;24.42;14.68;;;22.40;99.90;;;;;;5051017;28;20397;-86
2023/06/18 08:00:42;;;;;;;22.98;14.27;;;22.60;99.90;;;;;;5050860;28;20055;-81
2023/06/18 08:03:28;;;;;;;23.55;14.30;;;22.70;99.90;;;;;;5050114;28;20041;-82
2023/06/18 08:06:14;;;;;;;21.35;13.70;;;22.80;99.90;;;;;;5049950;28;20080;-83
2023/06/18 08:09:03;;;;;;;19.23;13.35;;;23.00;99.90;;;;;;5034288;28;20115;-86
2023/06/18 08:11:49;;;;;;;21.88;14.60;;;23.20;99.90;;;;;;5052554;28;20199;-88
2023/06/18 08:14:35;;;;;;;20.15;13.20;;;23.50;99.90;;;;;;5033643;28;20057;-83
2023/06/18 08:17:22;;;;;;;19.75;12.90;;;23.70;99.90;;;;;;5051504;28;20053;-87
2023/06/18 08:20:08;;;;;;;24.45;14.15;;;23.70;99.90;;;;;;5051207;28;20052;-90
2023/06/18 08:22:55;;;;;;;20.35;12.68;;;24.20;99.90;;;;;;5034507;28;20103;-84
2023/06/18 08:25:41;;;;;;;20.67;14.23;;;24.40;99.90;;;;;;5050031;28;20064;-83
2023/06/18 08:28:27;;;;;;;17.02;11.40;;;24.90;99.90;;;;;;5050032;28;20095;-83
2023/06/18 08:31:13;;;;;;;23.13;13.05;;;25.20;99.90;;;;;;5050622;28;20045;-88
2023/06/18 08:33:59;;;;;;;19.38;11.52;;;25.40;99.90;;;;;;5050198;28;20057;-86
2023/06/18 08:36:47;;;;;;;15.25;10.98;;;25.80;99.90;;;;;;5050272;28;20091;-89
2023/06/18 08:39:33;;;;;;;19.10;13.40;;;25.80;99.90;;;;;;5048971;28;20049;-89
2023/06/18 08:42:22;;;;;;;13.95;9.82;;;25.80;99.80;;;;;;5032637;28;20102;-88
2023/06/18 08:45:08;;;;;;;15.60;10.25;;;25.90;99.90;;;;;;5049961;28;20063;-82
2023/06/18 08:48:03;;;;;;;20.50;10.90;;;26.20;99.70;;;;;;5049821;28;20718;-82
2023/06/18 08:50:57;;;;;;;13.88;9.63;;;26.50;98.70;;;;;;5049948;28;20049;-80
2023/06/18 08:53:46;;;;;;;18.97;10.23;;;26.90;98.50;;;;;;5032034;28;20048;-84
2023/06/18 08:56:33;;;;;;;15.05;10.25;;;26.90;98.20;;;;;;5032210;28;20404;-82
2023/06/18 08:59:21;;;;;;;15.15;10.30;;;26.80;97.90;;;;;;5035671;28;20168;-80
2023/06/18 09:02:09;;;;;;;15.07;10.82;;;26.80;97.60;;;;;;5049532;28;20496;-82
2023/06/18 09:04:56;;;;;;;16.23;11.55;;;26.90;97.60;;;;;;5049882;28;20052;-81
2023/06/18 09:07:42;;;;;;;19.70;10.35;;;27.00;97.00;;;;;;5049756;28;20068;-81
2023/06/18 09:10:29;;;;;;;17.63;12.45;;;27.30;97.00;;;;;;5031639;28;20053;-82
2023/06/18 09:13:15;;;;;;;18.65;13.52;;;27.50;97.30;;;;;;5035876;28;20064;-83
2023/06/18 09:16:01;;;;;;;17.02;11.85;;;27.70;97.30;;;;;;5021912;28;20049;-89
2023/06/18 09:18:47;;;;;;;17.75;12.82;;;27.90;97.30;;;;;;5054375;28;20045;-81
2023/06/18 09:21:38;;;;;;;16.00;11.25;;;28.10;96.70;;;;;;5050037;28;20045;-87
2023/06/18 09:24:24;;;;;;;14.20;8.90;;;28.10;96.50;;;;;;5048846;28;20056;-83
2023/06/18 09:27:11;;;;;;;13.95;9.13;;;28.30;95.80;;;;;;5050943;28;20057;-81
2023/06/18 09:29:57;;;;;;;12.70;7.40;;;28.30;94.80;;;;;;5050230;28;20045;-84
2023/06/18 09:32:47;;;;;;;12.68;8.32;;;28.80;94.50;;;;;;5057038;28;20048;-79
2023/06/18 09:35:33;;;;;;;12.65;8.38;;;29.10;93.10;;;;;;5059747;28;20041;-79
2023/06/18 09:38:19;;;;;;;12.70;7.35;;;29.20;92.70;;;;;;5055246;28;20182;-80
2023/06/18 09:41:14;;;;;;;10.32;7.30;;;29.50;92.70;;;;;;5052038;28;20052;-79
2023/06/18 09:44:03;;;;;;;11.98;7.25;;;29.70;91.40;;;;;;5033030;28;20064;-79
2023/06/18 09:46:58;;;;;;;8.52;5.10;;;29.90;91.40;;;;;;5049652;28;20107;-80
2023/06/18 09:49:45;;;;;;;10.63;6.43;;;30.10;90.30;;;;;;5018004;28;20057;-80
2023/06/18 09:52:44;;;;;;;8.70;5.18;;;30.50;88.10;;;;;;5048698;28;20140;-80
2023/06/18 09:55:31;;;;;;;14.13;8.95;;;30.50;85.00;;;;;;5048703;28;20114;-80
2023/06/18 09:58:18;;;;;;;12.38;8.25;;;30.80;90.40;;;;;;5048612;28;20055;-80
2023/06/18 10:01:04;;;;;;;9.30;7.05;;;31.00;92.00;;;;;;5048676;28;20084;-79
2023/06/18 10:03:50;;;;;;;12.57;8.93;;;31.30;91.70;;;;;;5031167;28;20465;-79
2023/06/18 10:06:38;;;;;;;13.50;10.05;;;31.40;91.30;;;;;;5048727;28;20100;-79
2023/06/18 10:09:31;;;;;;;14.23;8.65;;;31.20;91.50;;;;;;5051394;28;20049;-86
2023/06/18 10:12:17;;;;;;;13.60;10.23;;;31.00;91.70;;;;;;5035814;28;20052;-85
2023/06/18 10:15:05;;;;;;;11.52;7.97;;;31.00;91.70;;;;;;5035647;28;20496;-84
2023/06/18 10:17:55;;;;;;;15.52;8.95;;;31.10;92.20;;;;;;5038674;28;20140;-81
2023/06/18 10:20:43;;;;;;;9.63;6.70;;;31.40;91.80;;;;;;5051868;28;20512;-81
2023/06/18 10:23:32;;;;;;;9.30;6.70;;;31.50;90.80;;;;;;5051712;28;20135;-82
2023/06/18 10:26:18;;;;;;;13.80;7.80;;;31.90;90.50;;;;;;5052845;28;20041;-82
2023/06/18 10:29:06;;;;;;;12.40;6.30;;;32.10;90.20;;;;;;5052071;28;20769;-83
2023/06/18 10:31:53;;;;;;;10.20;6.32;;;32.60;90.10;;;;;;5052137;28;20052;-88
2023/06/18 10:34:39;;;;;;;10.15;5.65;;;32.80;87.60;;;;;;5054559;28;20052;-79
2023/06/18 10:37:27;;;;;;;10.02;6.38;;;32.70;86.40;;;;;;5053449;28;20056;-81
2023/06/18 10:40:13;;;;;;;12.27;8.48;;;32.90;85.80;;;;;;5052743;28;20144;-82
2023/06/18 10:43:04;;;;;;;13.07;7.75;;;32.90;86.50;;;;;;5035401;28;20045;-87
2023/06/18 10:46:22;;;;;;;10.55;7.57;;;33.10;86.70;;;;;;5033339;28;20222;-80
2023/06/18 10:49:12;;;;;;;10.13;7.43;;;33.20;88.80;;;;;;5008257;28;20042;-78
2023/06/18 10:51:59;;;;;;;9.57;6.28;;;33.40;87.40;;;;;;5031958;28;20057;-80
2023/06/18 10:54:45;;;;;;;8.35;6.32;;;33.40;85.80;;;;;;5031987;28;20054;-79
2023/06/18 10:57:31;;;;;;;11.35;5.95;;;33.50;84.60;;;;;;5033235;28;20055;-83
2023/06/18 11:00:20;;;;;;;11.15;5.53;;;33.80;84.60;;;;;;5034872;28;20531;-80
2023/06/18 11:03:12;;;;;;;9.98;5.88;;;33.80;83.90;;;;;;5051253;28;20497;-83
2023/06/18 11:06:01;;;;;;;12.65;7.95;;;33.70;83.10;;;;;;5051601;28;20056;-82
2023/06/18 11:08:47;;;;;;;13.68;7.05;;;33.40;85.30;;;;;;5050784;28;20053;-77
2023/06/18 11:11:33;;;;;;;11.57;7.63;;;33.30;85.20;;;;;;5051299;28;20107;-80
2023/06/18 11:14:20;;;;;;;11.55;7.57;;;33.10;84.90;;;;;;5036222;28;20432;-81
2023/06/18 11:17:10;;;;;;;10.57;7.60;;;32.80;85.20;;;;;;5051989;28;20080;-81
2023/06/18 11:19:58;;;;;;;11.05;8.13;;;32.60;84.80;;;;;;5049923;28;20056;-81
2023/06/18 11:22:45;;;;;;;10.15;6.50;;;32.70;85.30;;;;;;5034341;28;20049;-83
2023/06/18 11:25:31;;;;;;;9.48;6.70;;;32.90;85.30;;;;;;5050093;28;20057;-78
2023/06/18 11:28:17;;;;;;;11.18;6.63;;;33.10;84.90;;;;;;5032954;28;20052;-84
2023/06/18 11:31:04;;;;;;;11.45;6.57;;;33.00;83.90;;;;;;5033480;28;20056;-82
2023/06/18 11:33:50;;;;;;;10.13;7.63;;;32.80;84.20;;;;;;5051117;28;20056;-78
2023/06/18 11:36:39;;;;;;;12.30;7.00;;;32.60;83.60;;;;;;5050510;28;20757;-80
2023/06/18 11:39:25;;;;;;;8.18;6.60;;;32.40;83.90;;;;;;5032781;28;20424;-82
2023/06/18 11:42:18;;;;;;;10.95;6.38;;;32.10;84.00;;;;;;5050387;28;20478;-78
2023/06/18 11:45:05;;;;;;;12.18;7.50;;;31.90;85.50;;;;;;5053745;28;20141;-79
2023/06/18 11:47:52;;;;;;;12.75;7.68;;;31.80;85.70;;;;;;5053592;28;20041;-79
2023/06/18 11:50:38;;;;;;;12.27;8.20;;;31.80;86.20;;;;;;5053149;28;20106;-80
2023/06/18 11:53:24;;;;;;;12.23;7.40;;;31.80;85.50;;;;;;5054306;28;20049;-85
2023/06/18 11:56:10;;;;;;;10.38;7.60;;;31.90;85.50;;;;;;5050153;28;20512;-82
2023/06/18 11:58:57;;;;;;;9.98;7.30;;;31.90;84.90;;;;;;5049865;28;20064;-83
2023/06/18 12:01:45;;;;;;;11.23;8.05;;;32.00;85.00;;;;;;5032869;28;20092;-82
2023/06/18 12:04:31;;;;;;;11.18;7.93;;;32.00;84.30;;;;;;5035145;28;20064;-88
2023/06/18 12:07:21;;;;;;;13.75;7.85;;;32.30;84.30;;;;;;5018892;28;20049;-84
2023/06/18 12:10:09;;;;;;;12.73;8.38;;;32.40;83.30;;;;;;5031740;28;20041;-82
2023/06/18 12:13:06;;;;;;;9.75;7.10;;;32.40;82.30;;;;;;5030613;28;20084;-78
2023/06/18 12:16:05;;;;;;;12.50;7.32;;;32.30;82.00;;;;;;5014486;28;20077;-79
2023/06/18 12:18:58;;;;;;;11.40;7.53;;;32.40;82.30;;;;;;5030327;28;20106;-81
2023/06/18 12:21:44;;;;;;;15.20;7.90;;;32.20;82.20;;;;;;5013762;28;20042;-81
2023/06/18 12:24:32;;;;;;;12.70;7.47;;;32.10;83.00;;;;;;5029566;28;20119;-79
2023/06/18 12:27:18;;;;;;;11.13;7.93;;;32.20;83.30;;;;;;5030097;28;20046;-80
2023/06/18 12:30:05;;;;;;;12.25;8.32;;;32.30;83.60;;;;;;5029722;28;20068;-81
2023/06/18 12:33:13;;;;;;;13.30;7.68;;;32.40;83.30;;;;;;5029264;28;20564;-81
2023/06/18 12:36:02;;;;;;;10.77;6.90;;;32.30;83.70;;;;;;5031654;28;20049;-80
2023/06/18 12:38:49;;;;;;;9.88;6.93;;;32.40;84.10;;;;;;5031549;28;20080;-81
2023/06/18 12:41:36;;;;;;;11.88;7.18;;;32.60;83.60;;;;;;5015287;28;20049;-81
2023/06/18 12:44:24;;;;;;;10.05;6.43;;;32.90;83.70;;;;;;5029824;28;20056;-87
2023/06/18 12:47:11;;;;;;;9.95;6.03;;;33.10;83.30;;;;;;5029489;28;20148;-81
2023/06/18 12:49:57;;;;;;;12.95;6.10;;;33.40;83.10;;;;;;5029860;28;20075;-79
2023/06/18 12:52:43;;;;;;;11.60;6.22;;;33.50;81.90;;;;;;5029113;28;20049;-81
2023/06/18 12:55:29;;;;;;;8.55;5.95;;;33.60;81.40;;;;;;5030550;28;20061;-84
2023/06/18 12:58:23;;;;;;;9.60;6.22;;;33.50;81.00;;;;;;5013338;28;20172;-84
2023/06/18 13:01:10;;;;;;;8.05;5.90;;;33.20;81.80;;;;;;4998596;28;20053;-79
2023/06/18 13:03:57;;;;;;;8.55;5.72;;;33.30;81.30;;;;;;5031384;28;20120;-83
2023/06/18 13:06:43;;;;;;;8.95;5.80;;;33.30;82.20;;;;;;5012106;28;20053;-88
2023/06/18 13:09:29;;;;;;;11.27;5.40;;;33.40;81.70;;;;;;5046245;28;20063;-84
2023/06/18 13:12:16;;;;;;;8.75;5.80;;;33.50;81.90;;;;;;5049684;28;20067;-79
2023/06/18 13:15:02;;;;;;;9.18;5.63;;;33.60;82.20;;;;;;5033660;28;20045;-84
2023/06/18 13:17:48;;;;;;;9.52;5.80;;;33.90;82.40;;;;;;5052143;28;20049;-87
2023/06/18 13:20:35;;;;;;;9.25;5.40;;;33.80;81.00;;;;;;5036926;28;20060;-85
2023/06/18 13:23:21;;;;;;;7.88;5.65;;;33.80;79.90;;;;;;5050061;28;20060;-80
2023/06/18 13:26:07;;;;;;;9.15;5.63;;;33.60;79.90;;;;;;5033406;28;20059;-79
2023/06/18 13:28:53;;;;;;;8.43;5.65;;;33.40;77.90;;;;;;5030973;28;20048;-81
2023/06/18 13:31:40;;;;;;;8.27;6.10;;;33.20;78.50;;;;;;5049857;28;20049;-81
2023/06/18 13:34:26;;;;;;;11.18;5.55;;;33.20;78.50;;;;;;5049108;28;20055;-86
2023/06/18 13:37:12;;;;;;;10.10;5.82;;;33.00;79.50;;;;;;5048478;28;20397;-79
2023/06/18 13:39:58;;;;;;;9.57;4.97;;;33.00;79.80;;;;;;5033393;28;20049;-79
2023/06/18 13:42:44;;;;;;;9.80;5.97;;;33.10;79.90;;;;;;5048146;28;20049;-81
2023/06/18 13:45:30;;;;;;;10.25;5.90;;;33.30;80.10;;;;;;5048647;28;20065;-86
2023/06/18 13:48:16;;;;;;;10.40;5.55;;;33.10;79.80;;;;;;5048715;28;20081;-83
2023/06/18 13:51:03;;;;;;;10.20;5.85;;;32.90;79.80;;;;;;5048235;28;20056;-83
2023/06/18 13:53:49;;;;;;;7.65;5.10;;;32.70;80.70;;;;;;5031532;28;20111;-83
2023/06/18 13:56:35;;;;;;;8.80;5.65;;;32.40;81.00;;;;;;5050409;28;20567;-84
2023/06/18 13:59:21;;;;;;;9.52;4.70;;;32.30;80.90;;;;;;5048900;28;20518;-78
2023/06/18 14:02:07;;;;;;;7.35;5.25;;;32.30;82.10;;;;;;5030589;28;20518;-79
2023/06/18 14:04:54;;;;;;;8.50;5.97;;;32.30;82.30;;;;;;5048916;28;20057;-87
2023/06/18 14:07:40;;;;;;;8.55;6.10;;;32.10;82.60;;;;;;5034438;28;20060;-80
2023/06/18 14:10:26;;;;;;;8.35;5.97;;;32.00;83.70;;;;;;5030085;28;20633;-84
2023/06/18 14:13:12;;;;;;;9.23;6.50;;;32.00;84.10;;;;;;5048646;28;20040;-83